Time;durP1;ratioP1;P1;durP2;ratioP2;P2;SDS_P1;SDS_P2;PMS_P1;PMS_P2;Temp;Humidity;BMP_temperature;BMP_pressure;BME280_temperature;BME280_humidity;BME280_pressure;Samples;Min_cycle;Max_cycle;Signal;HPM_P1;HPM_P2
2022/11/03 00:00:28;;;;;;;;;18.00;17.75;;;;;;;;5009713;28;11530;-81
2022/11/03 00:02:57;;;;;;;;;18.75;15.00;;;;;;;;5008479;28;8852;-80
2022/11/03 00:08:16;;;;;;;;;19.75;16.00;;;;;;;;4993767;28;11496;-81
2022/11/03 00:10:41;;;;;;;;;14.50;13.75;;;;;;;;5009665;28;11494;-83
2022/11/03 00:13:07;;;;;;;;;19.00;18.00;;;;;;;;5008743;28;11509;-82
2022/11/03 00:15:32;;;;;;;;;16.50;15.25;;;;;;;;5009865;28;8975;-82
2022/11/03 00:17:57;;;;;;;;;17.00;15.75;;;;;;;;5009625;28;8830;-83
2022/11/03 00:20:22;;;;;;;;;20.00;15.75;;;;;;;;5009618;28;8787;-83
2022/11/03 00:22:48;;;;;;;;;12.50;12.50;;;;;;;;5009931;28;8798;-83
2022/11/03 00:25:13;;;;;;;;;20.50;16.00;;;;;;;;5009583;28;8802;-83
2022/11/03 00:27:38;;;;;;;;;14.00;14.00;;;;;;;;5009566;28;8810;-82
2022/11/03 00:30:04;;;;;;;;;21.00;18.00;;;;;;;;5009882;28;8809;-82
2022/11/03 00:32:29;;;;;;;;;8.00;7.00;;;;;;;;5009804;28;8806;-81
2022/11/03 00:34:54;;;;;;;;;16.25;15.00;;;;;;;;5008601;28;8826;-81
2022/11/03 00:37:20;;;;;;;;;13.00;13.00;;;;;;;;5009864;28;9562;-81
2022/11/03 00:39:45;;;;;;;;;17.00;15.25;;;;;;;;5010139;28;8920;-81
2022/11/03 00:42:10;;;;;;;;;16.25;14.00;;;;;;;;5008452;28;8822;-81
2022/11/03 00:44:35;;;;;;;;;19.00;15.50;;;;;;;;5009523;28;8905;-82
2022/11/03 00:47:00;;;;;;;;;20.00;16.50;;;;;;;;5008552;28;8839;-83
2022/11/03 00:49:26;;;;;;;;;17.75;16.25;;;;;;;;5009786;28;9718;-83
2022/11/03 00:51:51;;;;;;;;;20.00;17.00;;;;;;;;5008030;28;8798;-81
2022/11/03 00:54:16;;;;;;;;;18.50;15.75;;;;;;;;5008186;28;8853;-81
2022/11/03 00:56:43;;;;;;;;;15.00;14.00;;;;;;;;5008383;28;8838;-78
2022/11/03 00:59:09;;;;;;;;;17.50;15.00;;;;;;;;5009331;28;8787;-79
2022/11/03 01:01:35;;;;;;;;;17.75;15.00;;;;;;;;5009200;28;11533;-79
2022/11/03 01:06:48;;;;;;;;;19.50;17.75;;;;;;;;5013178;28;11519;-80
2022/11/03 01:09:14;;;;;;;;;17.75;14.50;;;;;;;;5012608;28;11639;-78
2022/11/03 01:11:45;;;;;;;;;17.75;15.75;;;;;;;;5012971;28;11531;-78
2022/11/03 01:14:12;;;;;;;;;16.50;14.75;;;;;;;;5013245;28;8826;-79
2022/11/03 01:16:38;;;;;;;;;20.00;16.50;;;;;;;;5012916;28;11590;-79
2022/11/03 01:19:03;;;;;;;;;19.25;15.25;;;;;;;;5011592;28;11702;-79
2022/11/03 01:21:28;;;;;;;;;17.75;15.00;;;;;;;;5012744;28;9525;-79
2022/11/03 01:23:53;;;;;;;;;18.00;15.00;;;;;;;;5012771;28;8779;-78
2022/11/03 01:26:19;;;;;;;;;14.00;13.75;;;;;;;;5012656;28;8794;-78
2022/11/03 01:28:45;;;;;;;;;19.75;13.25;;;;;;;;5012117;28;8811;-78
2022/11/03 01:31:12;;;;;;;;;17.50;14.00;;;;;;;;5012799;28;8802;-78
2022/11/03 01:33:38;;;;;;;;;14.75;14.50;;;;;;;;5012658;28;12344;-78
2022/11/03 01:36:03;;;;;;;;;15.50;13.00;;;;;;;;5011108;28;11539;-78
2022/11/03 01:38:33;;;;;;;;;17.00;15.00;;;;;;;;5011142;28;8823;-77
2022/11/03 01:40:59;;;;;;;;;17.75;16.25;;;;;;;;5012707;28;8819;-78
2022/11/03 01:43:26;;;;;;;;;17.00;14.00;;;;;;;;5012196;28;11540;-77
2022/11/03 06:56:14;;;;;;;;;;;;;;;;;;5036311;27;13408;-76
2022/11/03 06:58:40;;;;;;;;;;;;;;;;;;5048828;28;7547;-78
2022/11/03 07:01:05;;;;;;;;;;;;;;;;;;5044967;28;7977;-76
2022/11/03 07:03:32;;;;;;;;;;;;;;;;;;5052299;28;7532;-75
2022/11/03 07:05:57;;;;;;;;;;;;;;;;;;5042314;28;7533;-76
2022/11/03 07:08:22;;;;;;;;;;;;;;;;;;5045028;28;7569;-76
2022/11/03 07:10:47;;;;;;;;;;;;;;;;;;5044980;28;7545;-76
2022/11/03 07:13:13;;;;;;;;;;;;;;;;;;5044812;28;7537;-76
2022/11/03 07:15:38;;;;;;;;;;;;;;;;;;5046479;28;7521;-76
2022/11/03 07:18:03;;;;;;;;;;;;;;;;;;5046664;28;7544;-76
2022/11/03 07:20:28;;;;;;;;;;;;;;;;;;5045619;28;7509;-76
2022/11/03 07:22:54;;;;;;;;;;;;;;;;;;5046994;28;7540;-82
2022/11/03 07:25:19;;;;;;;;;;;;;;;;;;5046839;28;7789;-76
2022/11/03 07:27:44;;;;;;;;;;;;;;;;;;5047052;28;7521;-78
2022/11/03 07:30:10;;;;;;;;;;;;;;;;;;5046602;28;7517;-79
2022/11/03 07:32:35;;;;;;;;;;;;;;;;;;5046655;28;7533;-78
2022/11/03 07:35:00;;;;;;;;;;;;;;;;;;5046135;28;7540;-76
2022/11/03 07:37:25;;;;;;;;;;;;;;;;;;5046324;28;8083;-76
2022/11/03 07:39:50;;;;;;;;;;;;;;;;;;5046046;28;7536;-75
2022/11/03 07:42:15;;;;;;;;;;;;;;;;;;5046214;28;7973;-75
2022/11/03 07:44:41;;;;;;;;;;;;;;;;;;5053012;28;7521;-76
2022/11/03 07:47:06;;;;;;;;;;;;;;;;;;5046060;28;7537;-82
2022/11/03 07:49:31;;;;;;;;;;;;;;;;;;5047605;28;7513;-80
2022/11/03 07:51:56;;;;;;;;;;;;;;;;;;5062585;28;7988;-81
2022/11/03 07:54:22;;;;;;;;;;;;;;;;;;5062391;28;7984;-84
2022/11/03 07:56:47;;;;;;;;;;;;;;;;;;5061924;23;7529;-73
2022/11/03 07:59:12;;;;;;;;;;;;;;;;;;5004108;28;7538;-73
2022/11/03 08:01:37;;;;;;;;;;;;;;;;;;5006357;28;7541;-72
2022/11/03 08:04:03;;;;;;;;;;;;;;;;;;5003583;28;7541;-74
2022/11/03 08:06:28;;;;;;;;;;;;;;;;;;4995087;28;7552;-72
2022/11/03 08:08:54;;;;;;;;;;;;;;;;;;4984628;28;7946;-73
2022/11/03 08:11:21;;;;;;;;;;;;;;;;;;4985789;28;7534;-73
2022/11/03 08:13:46;;;;;;;;;;;;;;;;;;4985619;28;7534;-73
2022/11/03 08:16:11;;;;;;;;;;;;;;;;;;4983726;28;7569;-73
2022/11/03 08:18:37;;;;;;;;;;;;;;;;;;4983927;28;7544;-75
2022/11/03 08:21:02;;;;;;;;;;;;;;;;;;5007845;28;7592;-74
2022/11/03 08:23:27;;;;;;;;;;;;;;;;;;5006537;28;7533;-72
2022/11/03 08:25:52;;;;;;;;;;;;;;;;;;4984569;28;7526;-74
2022/11/03 08:28:17;;;;;;;;;;;;;;;;;;4984601;28;7996;-73
2022/11/03 08:30:42;;;;;;;;;;;;;;;;;;5008689;28;7522;-73
2022/11/03 08:33:07;;;;;;;;;;;;;;;;;;4985009;28;7645;-73
2022/11/03 08:35:33;;;;;;;;;;;;;;;;;;4983564;28;7550;-74
2022/11/03 08:37:58;;;;;;;;;;;;;;;;;;4989017;28;7522;-74
2022/11/03 08:40:23;;;;;;;;;27.25;23.00;;;;;;;;4993219;28;7533;-74
2022/11/03 08:42:49;;;;;;;;;22.50;18.00;;;;;;;;4985233;28;8814;-73
2022/11/03 08:45:15;;;;;;;;;27.00;19.50;;;;;;;;5008061;28;8927;-74
2022/11/03 08:47:40;;;;;;;;;29.75;25.75;;;;;;;;4988634;28;13604;-76
2022/11/03 08:50:05;;;;;;;;;31.00;28.00;;;;;;;;4993018;28;8795;-74
2022/11/03 08:52:31;;;;;;;;;31.75;30.50;;;;;;;;4989791;28;8833;-74
2022/11/03 08:54:56;;;;;;;;;26.50;24.75;;;;;;;;4983924;28;8946;-74
2022/11/03 08:57:21;;;;;;;;;23.00;22.25;;;;;;;;4978427;28;13599;-74
2022/11/03 08:59:46;;;;;;;;;24.50;24.00;;;;;;;;4980433;28;8815;-74
2022/11/03 09:02:12;;;;;;;;;;;;;;;;;;4984747;28;8809;-74
2022/11/03 09:04:37;;;;;;;;;;;;;;;;;;4982142;28;7640;-74
2022/11/03 09:07:02;;;;;;;;;;;;;;;;;;4984137;28;7529;-74
2022/11/03 09:09:27;;;;;;;;;;;;;;;;;;4984591;28;7522;-74
2022/11/03 09:11:52;;;;;;;;;;;;;;;;;;4982540;28;7546;-74
2022/11/03 09:14:18;;;;;;;;;;;;;;;;;;5009254;28;7530;-75
2022/11/03 09:16:43;;;;;;;;;;;;;;;;;;4994142;28;7553;-74
2022/11/03 09:19:08;;;;;;;;;;;;;;;;;;4991261;28;7538;-74
2022/11/03 09:21:33;;;;;;;;;;;;;;;;;;4993956;28;7532;-74
2022/11/03 09:23:59;;;;;;;;;;;;;;;;;;4991719;28;7534;-74
2022/11/03 09:26:24;;;;;;;;;;;;;;;;;;4993481;28;7616;-73
2022/11/03 09:28:49;;;;;;;;;;;;;;;;;;4992424;28;7522;-74
2022/11/03 09:31:14;;;;;;;;;22.50;21.00;;;;;;;;4991853;28;8957;-76
2022/11/03 09:33:39;;;;;;;;;27.75;20.00;;;;;;;;4990262;28;9572;-75
2022/11/03 09:36:05;;;;;;;;;29.25;23.50;;;;;;;;4992323;28;8822;-74
2022/11/03 09:38:30;;;;;;;;;23.75;22.75;;;;;;;;4986095;28;8963;-75
2022/11/03 09:40:55;;;;;;;;;;;;;;;;;;5005653;28;9626;-75
2022/11/03 09:43:21;;;;;;;;;26.75;23.75;;;;;;;;4983876;28;8864;-80
2022/11/03 09:45:46;;;;;;;;;26.25;23.75;;;;;;;;4982873;28;8821;-76
2022/11/03 09:48:11;;;;;;;;;27.50;22.75;;;;;;;;4979590;28;8811;-76
2022/11/03 09:50:37;;;;;;;;;;;;;;;;;;4994833;28;8821;-77
2022/11/03 09:53:02;;;;;;;;;;;;;;;;;;4991695;28;7683;-77
2022/11/03 09:55:27;;;;;;;;;;;;;;;;;;4988744;28;7533;-76
2022/11/03 09:58:00;;;;;;;;;27.40;23.00;;;;;;;;4988490;28;8913;-75
2022/11/03 10:00:26;;;;;;;;;;;;;;;;;;4994319;28;8810;-76
2022/11/03 10:02:52;;;;;;;;;29.00;25.75;;;;;;;;4991188;28;7550;-75
2022/11/03 10:05:23;;;;;;;;;29.75;23.00;;;;;;;;4991795;28;11496;-76
2022/11/03 10:07:48;;;;;;;;;;;;;;;;;;4990935;28;11566;-76
2022/11/03 10:10:13;;;;;;;;;;;;;;;;;;4993687;28;7522;-76
2022/11/03 10:12:38;;;;;;;;;27.20;25.80;;;;;;;;4991452;28;8811;-75
2022/11/03 10:15:03;;;;;;;;;;;;;;;;;;5009111;28;8864;-76
2022/11/03 10:17:28;;;;;;;;;;;;;;;;;;4991523;28;8810;-76
2022/11/03 10:19:53;;;;;;;;;;;;;;;;;;4990557;28;7538;-74
2022/11/03 10:22:19;;;;;;;;;;;;;;;;;;4991457;28;7998;-75
2022/11/03 10:24:44;;;;;;;;;;;;;;;;;;4992946;28;8931;-76
2022/11/03 10:27:09;;;;;;;;;;;;;;;;;;4993469;28;7536;-76
2022/11/03 10:29:34;;;;;;;;;;;;;;;;;;4988809;28;8888;-75
2022/11/03 10:31:59;;;;;;;;;;;;;;;;;;4992869;28;7533;-75
2022/11/03 10:34:25;;;;;;;;;;;;;;;;;;4993097;28;7544;-76
2022/11/03 10:36:50;;;;;;;;;;;;;;;;;;5024737;28;7546;-78
2022/11/03 10:39:15;;;;;;;;;;;;;;;;;;4989359;28;7540;-77
2022/11/03 10:41:40;;;;;;;;;;;;;;;;;;4987556;28;7526;-76
2022/11/03 10:44:06;;;;;;;;;;;;;;;;;;4992842;28;7534;-78
2022/11/03 10:46:32;;;;;;;;;;;;;;;;;;5007992;28;7526;-77
2022/11/03 10:48:57;;;;;;;;;;;;;;;;;;4989741;28;7973;-78
2022/11/03 10:51:22;;;;;;;;;;;;;;;;;;4993138;28;7533;-78
2022/11/03 10:53:47;;;;;;;;;;;;;;;;;;4990756;28;7522;-79
2022/11/03 10:56:12;;;;;;;;;;;;;;;;;;4975594;28;7986;-75
2022/11/03 10:58:38;;;;;;;;;;;;;;;;;;4992740;28;7530;-74
2022/11/03 11:01:03;;;;;;;;;;;;;;;;;;4975792;28;7541;-74
2022/11/03 11:03:29;;;;;;;;;;;;;;;;;;4988457;28;7534;-73
2022/11/03 11:05:54;;;;;;;;;;;;;;;;;;4992719;28;7652;-74
2022/11/03 11:08:19;;;;;;;;;;;;;;;;;;4986326;28;8017;-73
2022/11/03 11:10:44;;;;;;;;;;;;;;;;;;4987359;28;7538;-76
2022/11/03 11:13:11;;;;;;;;;;;;;;;;;;4991073;28;7534;-74
2022/11/03 11:15:36;;;;;;;;;;;;;;;;;;4992223;28;8044;-74
2022/11/03 11:18:01;;;;;;;;;;;;;;;;;;4988373;28;7533;-74
2022/11/03 11:20:26;;;;;;;;;;;;;;;;;;4992842;28;7596;-74
2022/11/03 11:22:52;;;;;;;;;;;;;;;;;;5004358;28;7522;-75
2022/11/03 11:25:17;;;;;;;;;;;;;;;;;;4974699;28;7534;-76
2022/11/03 11:27:42;;;;;;;;;;;;;;;;;;4981415;28;7546;-73
2022/11/03 11:30:07;;;;;;;;;;;;;;;;;;4981912;28;7530;-74
2022/11/03 11:32:32;;;;;;;;;;;;;;;;;;4978017;28;7538;-74
2022/11/03 11:34:57;;;;;;;;;;;;;;;;;;5007346;28;7530;-75
2022/11/03 11:37:23;;;;;;;;;;;;;;;;;;4992128;28;8028;-75
2022/11/03 11:39:48;;;;;;;;;;;;;;;;;;4989981;28;7544;-76
2022/11/03 11:42:13;;;;;;;;;;;;;;;;;;4994922;28;8035;-75
2022/11/03 11:44:38;;;;;;;;;;;;;;;;;;4995428;28;7529;-76
2022/11/03 11:47:03;;;;;;;;;;;;;;;;;;5005639;28;7537;-75
2022/11/03 11:49:28;;;;;;;;;;;;;;;;;;4992472;28;7521;-76
2022/11/03 11:51:54;;;;;;;;;;;;;;;;;;4995842;28;7526;-76
2022/11/03 11:54:19;;;;;;;;;;;;;;;;;;4995680;28;7664;-74
2022/11/03 11:56:44;;;;;;;;;;;;;;;;;;5005447;28;7526;-75
2022/11/03 11:59:09;;;;;;;;;;;;;;;;;;4976631;28;7605;-76
2022/11/03 12:01:34;;;;;;;;;;;;;;;;;;4976471;28;7549;-76
2022/11/03 12:03:59;;;;;;;;;;;;;;;;;;4976755;28;7552;-75
2022/11/03 12:06:24;;;;;;;;;;;;;;;;;;4976034;28;7530;-74
2022/11/03 12:08:50;;;;;;;;;;;;;;;;;;4976485;28;7526;-74
2022/11/03 12:11:15;;;;;;;;;;;;;;;;;;4994374;28;7529;-76
2022/11/03 12:13:41;;;;;;;;;;;;;;;;;;4995886;28;7588;-76
2022/11/03 12:16:06;;;;;;;;;;;;;;;;;;4995908;28;7607;-76
2022/11/03 12:18:32;;;;;;;;;;;;;;;;;;4995805;28;7521;-76
2022/11/03 12:20:57;;;;;;;;;;;;;;;;;;4995761;28;7518;-75
2022/11/03 12:23:22;;;;;;;;;;;;;;;;;;4995558;28;7522;-75
2022/11/03 12:25:47;;;;;;;;;;;;;;;;;;4994926;28;7533;-72
2022/11/03 12:28:12;;;;;;;;;;;;;;;;;;4995562;28;7528;-72
2022/11/03 12:30:38;;;;;;;;;;;;;;;;;;4995346;28;7526;-71
2022/11/03 12:33:03;;;;;;;;;;;;;;;;;;5010457;28;7620;-69
2022/11/03 12:35:28;;;;;;;;;;;;;;;;;;4989789;28;7534;-70
2022/11/03 12:37:53;;;;;;;;;;;;;;;;;;4984462;28;7526;-69
2022/11/03 12:40:19;;;;;;;;;;;;;;;;;;4982859;28;7541;-69
2022/11/03 12:42:44;;;;;;;;;;;;;;;;;;4985034;28;7533;-69
2022/11/03 12:45:09;;;;;;;;;;;;;;;;;;4983862;28;7538;-70
2022/11/03 12:47:34;;;;;;;;;;;;;;;;;;4986017;28;8002;-69
2022/11/03 12:50:00;;;;;;;;;;;;;;;;;;4984645;28;7525;-69
2022/11/03 12:52:25;;;;;;;;;;;;;;;;;;4984456;28;7528;-68
2022/11/03 12:54:50;;;;;;;;;;;;;;;;;;4985708;28;7553;-70
2022/11/03 12:57:15;;;;;;;;;;;;;;;;;;4998676;28;7548;-70
2022/11/03 12:59:40;;;;;;;;;;;;;;;;;;4991681;28;7526;-70
2022/11/03 13:02:05;;;;;;;;;;;;;;;;;;4994656;28;7534;-68
2022/11/03 13:04:31;;;;;;;;;;;;;;;;;;4989633;28;7542;-71
2022/11/03 13:06:56;;;;;;;;;;;;;;;;;;4979151;28;7620;-70
2022/11/03 13:09:21;;;;;;;;;;;;;;;;;;5009744;28;7542;-70
2022/11/03 13:14:30;;;;;;;;;;;;;;;;;;4994312;28;7526;-71
2022/11/03 13:16:55;;;;;;;;;;;;;;;;;;4991106;28;7584;-70
2022/11/03 13:19:20;;;;;;;;;;;;;;;;;;4984565;28;7637;-68
2022/11/03 13:21:45;;;;;;;;;;;;;;;;;;4982695;28;7542;-70
2022/11/03 13:24:10;;;;;;;;;;;;;;;;;;4981012;28;7549;-69
2022/11/03 13:26:35;;;;;;;;;;;;;;;;;;4999107;28;7522;-70
2022/11/03 13:29:01;;;;;;;;;;;;;;;;;;4982420;28;7982;-69
2022/11/03 13:31:26;;;;;;;;;;;;;;;;;;4992541;28;7613;-69
2022/11/03 13:33:51;;;;;;;;;;;;;;;;;;4986227;28;7530;-69
2022/11/03 13:36:16;;;;;;;;;;;;;;;;;;4991414;28;7984;-68
2022/11/03 13:38:41;;;;;;;;;;;;;;;;;;4992173;28;7545;-68
2022/11/03 13:41:06;;;;;;;;;;;;;;;;;;4990456;28;7541;-69
2022/11/03 13:43:31;;;;;;;;;;;;;;;;;;4991118;28;7538;-68
2022/11/03 13:46:01;;;;;;;;;;;;;;;;;;4982057;28;7625;-68
2022/11/03 13:48:26;;;;;;;;;;;;;;;;;;4994019;28;7518;-69
2022/11/03 13:50:52;;;;;;;;;;;;;;;;;;4993735;28;7526;-69
2022/11/03 13:53:17;;;;;;;;;;;;;;;;;;4982626;28;7530;-69
2022/11/03 13:55:42;;;;;;;;;;;;;;;;;;4983864;28;7549;-69
2022/11/03 13:58:07;;;;;;;;;;;;;;;;;;4983046;28;7533;-69
2022/11/03 14:00:32;;;;;;;;;;;;;;;;;;4984518;28;7526;-69
2022/11/03 14:02:58;;;;;;;;;;;;;;;;;;4982087;28;7966;-69
2022/11/03 14:05:23;;;;;;;;;;;;;;;;;;4983421;28;7522;-69
2022/11/03 14:07:48;;;;;;;;;;;;;;;;;;4985200;28;7601;-69
2022/11/03 14:10:13;;;;;;;;;;;;;;;;;;4992987;28;7602;-69
2022/11/03 14:12:39;;;;;;;;;;;;;;;;;;4994205;28;7533;-69
2022/11/03 14:15:04;;;;;;;;;;;;;;;;;;4973799;28;7526;-69
2022/11/03 14:17:29;;;;;;;;;;;;;;;;;;4974041;28;7518;-68
2022/11/03 14:19:54;;;;;;;;;;;;;;;;;;4973976;28;7526;-68
2022/11/03 14:22:19;;;;;;;;;;;;;;;;;;4978685;28;7522;-68
2022/11/03 14:24:44;;;;;;;;;;;;;;;;;;4982945;28;7518;-69
2022/11/03 14:27:09;;;;;;;;;;;;;;;;;;4981468;28;7536;-68
2022/11/03 14:29:34;;;;;;;;;;;;;;;;;;4982442;28;7525;-69
2022/11/03 14:32:00;;;;;;;;;;;;;;;;;;4985736;28;7534;-81
2022/11/03 14:34:25;;;;;;;;;;;;;;;;;;5008413;28;7518;-81
2022/11/03 14:36:50;;;;;;;;;;;;;;;;;;4993542;28;7538;-86
2022/11/03 14:39:15;;;;;;;;;;;;;;;;;;4988791;28;7546;-77
2022/11/03 14:44:24;;;;;;;;;;;;;;;;;;4982624;28;7530;-78
2022/11/03 14:46:49;;;;;;;;;;;;;;;;;;4982458;28;7532;-76
2022/11/03 14:49:14;;;;;;;;;;;;;;;;;;4981193;28;7664;-78
2022/11/03 14:51:39;;;;;;;;;;;;;;;;;;4984426;28;7530;-76
2022/11/03 14:54:04;;;;;;;;;;;;;;;;;;4982731;28;7518;-78
2022/11/03 14:56:30;;;;;;;;;;;;;;;;;;4982825;28;7533;-77
2022/11/03 14:58:55;;;;;;;;;;;;;;;;;;4981432;28;7593;-76
2022/11/03 15:01:20;;;;;;;;;;;;;;;;;;4983455;28;7526;-77
2022/11/03 15:03:45;;;;;;;;;;;;;;;;;;4999957;28;8033;-78
2022/11/03 15:06:10;;;;;;;;;;;;;;;;;;4982132;28;7518;-76
2022/11/03 15:08:36;;;;;;;;;;;;;;;;;;4983180;28;7534;-76
2022/11/03 15:11:01;;;;;;;;;;;;;;;;;;4999285;28;7542;-76
2022/11/03 15:13:26;;;;;;;;;;;;;;;;;;4975308;28;7658;-76
2022/11/03 15:15:51;;;;;;;;;;;;;;;;;;4971504;28;7546;-77
2022/11/03 15:18:16;;;;;;;;;;;;;;;;;;4977052;28;7537;-80
2022/11/03 15:20:42;;;;;;;;;;;;;;;;;;4976993;28;7530;-81
2022/11/03 15:23:07;;;;;;;;;;;;;;;;;;4977007;28;7519;-80
2022/11/03 15:25:32;;;;;;;;;;;;;;;;;;4977066;28;7526;-75
2022/11/03 15:27:57;;;;;;;;;;;;;;;;;;4976968;28;7665;-76
2022/11/03 15:30:22;;;;;;;;;;;;;;;;;;4976849;28;7522;-77
2022/11/03 15:35:15;;;;;;;;;;;;;;;;;;5110634;27;13400;-75
2022/11/03 15:37:43;;;;;;;;;;;;;;;;;;5109435;28;7550;-74
2022/11/03 15:40:08;;;;;;;;;;;;;;;;;;5117613;28;7524;-73
2022/11/03 15:42:34;;;;;;;;;;;;;;;;;;5130186;28;7523;-76
2022/11/03 15:44:59;;;;;;;;;;;;;;;;;;5130301;28;7535;-77
2022/11/03 15:47:24;;;;;;;;;;;;;;;;;;5130435;28;7527;-71
2022/11/03 15:49:49;;;;;;;;;;;;;;;;;;5130706;28;7515;-72
2022/11/03 15:52:14;;;;;;;;;;;;;;;;;;5130474;28;7535;-72
2022/11/03 15:54:40;;;;;;;;;;;;;;;;;;5130315;28;8013;-72
2022/11/03 15:59:37;;;;;;;;;;;;;;;;;;5046957;28;7518;-78
2022/11/03 16:02:02;;;;;;;;;;;;;;;;;;5048442;28;7521;-77
2022/11/03 16:04:27;;;;;;;;;;;;;;;;;;5048995;28;7548;-76
2022/11/03 16:06:52;;;;;;;;;;;;;;;;;;5048423;28;7525;-76
2022/11/03 16:09:17;;;;;;;;;;;;;;;;;;5049107;28;8808;-77
2022/11/03 16:11:42;;;;;;;;;;;;;;;;;;5048081;28;7607;-78
2022/11/03 16:14:08;;;;;;;;;;;;;;;;;;5048544;28;7571;-77
2022/11/03 16:16:33;;;;;;;;;;;;;;;;;;5048286;28;7533;-78
2022/11/03 16:18:58;;;;;;;;;;;;;;;;;;5047980;28;7522;-76
2022/11/03 16:21:23;;;;;;;;;;;;;;;;;;5048290;28;7540;-77
2022/11/03 16:23:48;;;;;;;;;;;;;;;;;;5048105;28;7556;-77
2022/11/03 16:26:14;;;;;;;;;;;;;;;;;;5047869;28;7533;-77
2022/11/03 16:28:39;;;;;;;;;;;;;;;;;;5048025;28;7574;-77
2022/11/03 16:31:04;;;;;;;;;;;;;;;;;;5047832;28;7541;-76
2022/11/03 16:33:29;;;;;;;;;;;;;;;;;;5047646;28;7541;-76
2022/11/03 16:35:54;;;;;;;;;;;;;;;;;;5047371;28;7536;-78
2022/11/03 16:38:19;;;;;;;;;;;;;;;;;;5047589;28;7535;-77
2022/11/03 16:40:44;;;;;;;;;;;;;;;;;;5047446;28;7547;-76
2022/11/03 16:43:09;;;;;;;;;;;;;;;;;;5047481;28;7525;-77
2022/11/03 16:45:35;;;;;;;;;;;;;;;;;;5039606;28;7525;-77
2022/11/03 16:48:00;;;;;;;;;;;;;;;;;;5034176;28;7521;-77
2022/11/03 16:50:25;;;;;;;;;;;;;;;;;;5034179;28;7513;-77
2022/11/03 16:52:50;;;;;;;;;;;;;;;;;;5033749;28;7636;-77
2022/11/03 16:55:15;;;;;;;;;;;;;;;;;;5032569;28;7505;-77
2022/11/03 16:57:40;;;;;;;;;;;;;;;;;;5034426;28;7548;-76
2022/11/03 17:00:06;;;;;;;;;;;;;;;;;;5032837;28;7521;-77
2022/11/03 17:02:31;;;;;;;;;;;;;;;;;;5032586;28;7517;-78
2022/11/03 17:04:56;;;;;;;;;;;;;;;;;;5032550;28;7683;-76
2022/11/03 17:07:21;;;;;;;;;;;;;;;;;;5033921;28;7957;-76
2022/11/03 17:09:46;;;;;;;;;;;;;;;;;;5033676;28;7997;-76
2022/11/03 17:12:11;;;;;;;;;;;;;;;;;;5033391;28;7529;-76
2022/11/03 17:14:36;;;;;;;;;;;;;;;;;;5033459;28;7589;-77
2022/11/03 17:17:02;;;;;;;;;;;;;;;;;;5033680;28;7536;-76
2022/11/03 17:19:27;;;;;;;;;;;;;;;;;;5025346;28;7542;-78
2022/11/03 17:21:52;;;;;;;;;;;;;;;;;;5014147;28;7522;-78
2022/11/03 17:24:17;;;;;;;;;;;;;;;;;;5016604;28;7592;-75
2022/11/03 17:26:42;;;;;;;;;;;;;;;;;;5021236;28;7544;-76
2022/11/03 17:29:07;;;;;;;;;;;;;;;;;;5023272;28;7514;-78
2022/11/03 17:31:32;;;;;;;;;;;;;;;;;;5021851;28;7593;-79
2022/11/03 17:33:58;;;;;;;;;;;;;;;;;;5021129;28;7553;-76
2022/11/03 17:36:23;;;;;;;;;;;;;;;;;;5020393;28;7525;-73
2022/11/03 17:38:51;;;;;;;;;;;;;;;;;;5021576;28;7965;-72
2022/11/03 17:41:16;;;;;;;;;;;;;;;;;;5031409;28;7513;-73
2022/11/03 17:43:41;;;;;;;;;;;;;;;;;;5031668;28;7571;-77
2022/11/03 17:46:07;;;;;;;;;;;;;;;;;;5027339;28;7537;-74
2022/11/03 17:48:32;;;;;;;;;;;;;;;;;;5021657;28;7517;-78
2022/11/03 17:50:57;;;;;;;;;;;;;;;;;;5019305;28;7517;-78
2022/11/03 17:53:22;;;;;;;;;;;;;;;;;;5022623;28;7984;-78
2022/11/03 17:55:47;;;;;;;;;;;;;;;;;;5020898;28;7513;-76
2022/11/03 17:58:12;;;;;;;;;;;;;;;;;;5021463;28;8025;-77
2022/11/03 18:00:38;;;;;;;;;;;;;;;;;;5019075;28;7529;-78
2022/11/03 18:03:03;;;;;;;;;;;;;;;;;;5023384;28;7599;-76
2022/11/03 18:05:29;;;;;;;;;;;;;;;;;;5020996;28;7538;-75
2022/11/03 18:07:59;;;;;;;;;17.75;15.50;;;;;;;;5024740;28;8815;-78
2022/11/03 18:10:28;;;;;;;;;19.00;18.00;;;;;;;;5025860;28;14312;-78
2022/11/03 18:15:40;;;;;;;;;25.50;24.00;;;;;;;;5024286;28;13726;-77
2022/11/03 18:18:19;;;;;;;;;24.50;21.50;;;;;;;;5024372;28;13612;-76
2022/11/03 18:20:44;;;;;;;;;;;;;;;;;;5028305;28;11567;-75
2022/11/03 18:23:09;;;;;;;;;;;;;;;;;;5031930;28;8816;-75
2022/11/03 18:25:35;;;;;;;;;24.00;22.40;;;;;;;;5028959;28;8841;-74
2022/11/03 18:28:00;;;;;;;;;22.75;19.00;;;;;;;;5027429;28;8828;-75
2022/11/03 18:30:25;;;;;;;;;27.33;22.67;;;;;;;;5024655;28;13540;-76
2022/11/03 18:32:51;;;;;;;;;20.50;17.75;;;;;;;;5028910;28;8828;-75
2022/11/03 18:35:19;;;;;;;;;19.50;19.00;;;;;;;;5024278;28;13717;-75
2022/11/03 18:37:44;;;;;;;;;;;;;;;;;;5026397;28;8846;-76
2022/11/03 18:40:09;;;;;;;;;;;;;;;;;;5029819;28;7517;-74
2022/11/03 18:42:34;;;;;;;;;;;;;;;;;;5030809;28;7518;-75
2022/11/03 18:45:00;;;;;;;;;;;;;;;;;;5030181;28;7549;-76
2022/11/03 18:47:25;;;;;;;;;;;;;;;;;;5030097;28;7525;-75
2022/11/03 18:49:50;;;;;;;;;;;;;;;;;;5030114;28;7575;-74
2022/11/03 18:52:19;;;;;;;;;;;;;;;;;;5020786;28;7521;-77
2022/11/03 18:54:44;;;;;;;;;;;;;;;;;;5015737;28;9041;-76
2022/11/03 18:57:12;;;;;;;;;;;;;;;;;;5009350;28;7989;-77
2022/11/03 18:59:39;;;;;;;;;20.75;15.75;;;;;;;;5007707;28;10062;-77
2022/11/03 19:02:22;;;;;;;;;30.00;24.75;;;;;;;;5005074;28;13596;-74
2022/11/03 19:04:47;;;;;;;;;;;;;;;;;;5025699;28;8861;-75
2022/11/03 19:07:12;;;;;;;;;;;;;;;;;;5010722;28;7529;-75
2022/11/03 19:09:37;;;;;;;;;;;;;;;;;;5011263;28;7548;-76
2022/11/03 19:12:02;;;;;;;;;;;;;;;;;;5011070;28;7526;-73
2022/11/03 19:14:28;;;;;;;;;;;;;;;;;;5011033;28;8028;-79
2022/11/03 19:16:54;;;;;;;;;;;;;;;;;;5009018;28;7514;-74
2022/11/03 19:19:20;;;;;;;;;;;;;;;;;;5011207;28;7518;-75
2022/11/03 19:21:45;;;;;;;;;;;;;;;;;;5025703;28;7518;-73
2022/11/03 19:24:10;;;;;;;;;;;;;;;;;;5011588;28;7564;-74
2022/11/03 19:26:35;;;;;;;;;;;;;;;;;;5024761;28;7544;-74
2022/11/03 19:29:00;;;;;;;;;;;;;;;;;;5008950;28;7549;-72
2022/11/03 19:31:25;;;;;;;;;;;;;;;;;;5008936;28;7534;-71
2022/11/03 19:33:51;;;;;;;;;;;;;;;;;;5009828;28;7992;-70
2022/11/03 19:36:16;;;;;;;;;;;;;;;;;;5008241;28;7969;-73
2022/11/03 19:38:41;;;;;;;;;;;;;;;;;;5025184;28;7521;-76
2022/11/03 19:43:50;;;;;;;;;;;;;;;;;;5009727;28;7529;-73
2022/11/03 19:46:15;;;;;;;;;;;;;;;;;;5007920;28;7516;-73
2022/11/03 19:48:40;;;;;;;;;;;;;;;;;;5010127;28;7534;-72
2022/11/03 19:51:05;;;;;;;;;;;;;;;;;;5009667;28;7580;-73
2022/11/03 19:53:32;;;;;;;;;;;;;;;;;;5009434;28;7545;-74
2022/11/03 19:55:57;;;;;;;;;;;;;;;;;;5007859;28;7541;-75
2022/11/03 19:58:22;;;;;;;;;;;;;;;;;;5009510;28;7644;-77
2022/11/03 20:00:47;;;;;;;;;;;;;;;;;;5009193;28;7533;-77
2022/11/03 20:03:13;;;;;;;;;;;;;;;;;;5009818;28;7533;-75
2022/11/03 20:05:38;;;;;;;;;;;;;;;;;;5009617;28;7533;-76
2022/11/03 20:08:03;;;;;;;;;;;;;;;;;;5002963;28;7605;-74
2022/11/03 20:10:28;;;;;;;;;;;;;;;;;;5002204;28;7546;-74
2022/11/03 20:12:53;;;;;;;;;;;;;;;;;;5007599;28;8822;-75
2022/11/03 20:15:19;;;;;;;;;;;;;;;;;;5024555;28;7542;-75
2022/11/03 20:17:44;;;;;;;;;;;;;;;;;;5005491;28;8811;-76
2022/11/03 20:20:09;;;;;;;;;;;;;;;;;;5005155;28;8269;-74
2022/11/03 20:22:34;;;;;;;;;;;;;;;;;;5010461;28;7521;-76
2022/11/03 20:24:59;;;;;;;;;;;;;;;;;;5028210;28;7522;-74
2022/11/03 20:27:24;;;;;;;;;;;;;;;;;;5010201;28;7542;-74
2022/11/03 20:29:50;;;;;;;;;;;;;;;;;;5012898;28;7541;-76
2022/11/03 20:32:15;;;;;;;;;;;;;;;;;;5010499;28;7538;-75
2022/11/03 20:34:40;;;;;;;;;;;;;;;;;;5012214;28;7546;-74
2022/11/03 20:37:05;;;;;;;;;;;;;;;;;;5006935;28;7525;-74
2022/11/03 20:39:30;;;;;;;;;;;;;;;;;;5008376;28;7537;-74
2022/11/03 20:41:56;;;;;;;;;;;;;;;;;;5006394;28;7640;-73
2022/11/03 20:44:22;;;;;;;;;;;;;;;;;;5010052;28;7544;-75
2022/11/03 20:46:47;;;;;;;;;;;;;;;;;;5013166;28;7533;-75
2022/11/03 20:49:13;;;;;;;;;;;;;;;;;;5012930;28;7517;-73
2022/11/03 20:51:38;;;;;;;;;;;;;;;;;;5012836;28;8156;-73
2022/11/03 20:54:03;;;;;;;;;;;;;;;;;;5012858;28;7563;-75
2022/11/03 20:56:28;;;;;;;;;;;;;;;;;;5012975;28;8115;-75
2022/11/03 20:58:53;;;;;;;;;;;;;;;;;;5027769;28;7549;-75
2022/11/03 21:01:18;;;;;;;;;;;;;;;;;;5027736;28;7532;-74
2022/11/03 21:03:43;;;;;;;;;;;;;;;;;;5012825;28;7526;-75
2022/11/03 21:06:09;;;;;;;;;;;;;;;;;;5012871;28;7537;-75
2022/11/03 21:08:34;;;;;;;;;;;;;;;;;;5027805;28;7520;-75
2022/11/03 21:11:22;;;;;;;;;;;;;;;;;;5012993;28;7529;-75
2022/11/03 21:13:47;;;;;;;;;;;;;;;;;;5012277;28;8056;-75
2022/11/03 21:21:43;;;;;;;;;;;;;;;;;;5013585;28;11575;-75
2022/11/03 21:24:08;;;;;;;;;;;;;;;;;;5012593;28;8009;-75
2022/11/03 21:26:35;;;;;;;;;;;;;;;;;;5012537;28;7525;-76
2022/11/03 21:29:00;;;;;;;;;;;;;;;;;;5013143;28;8834;-76
2022/11/03 21:31:25;;;;;;;;;;;;;;;;;;5012386;28;7553;-75
2022/11/03 21:33:50;;;;;;;;;;;;;;;;;;5026929;28;7549;-75
2022/11/03 21:36:15;;;;;;;;;;;;;;;;;;5025682;28;7534;-76
2022/11/03 21:38:41;;;;;;;;;;;;;;;;;;5012442;28;7533;-74
2022/11/03 21:46:34;;;;;;;;;;;;;;;;;;5012836;28;8759;-74
2022/11/03 21:51:42;;;;;;;;;;;;;;;;;;5012006;28;7521;-74
2022/11/03 21:54:08;;;;;;;;;;;;;;;;;;5011632;28;7564;-74
2022/11/03 21:56:33;;;;;;;;;;;;;;;;;;5012134;28;7524;-74
2022/11/03 21:58:58;;;;;;;;;;;;;;;;;;5011574;28;8055;-75
2022/11/03 22:01:23;;;;;;;;;;;;;;;;;;5011518;28;7533;-75
2022/11/03 22:03:48;;;;;;;;;;;;;;;;;;5011565;28;7533;-75